Terminal Aerodrome Forecast
Issued by NWS

Home | Current Version | Previous Version | Text Only | Print | Product List | Glossary Off
Versions: 1 2 3 4 5 6 7 8 9 10 11 12 13 14

000
FTUS43 KOAX 251742
TAFCDR
TAF
KCDR 251742Z 2518/2618 26013KT P6SM VCTS BKN100CB
     FM260000 29009KT P6SM BKN250
     FM260500 30005KT P6SM SCT250=

USA.gov is the U.S. government's official web portal to all federal, state and local government web resources and services.